Airfield :
LOGIN :

Register | Disclaimer

   EN    FR    IT 

 










Legend :    VFR   Marginal VFR   IFR   Intensive IFR   Very Intensive IFR
Visi :
Ceiling :
>= 8 km
>= 3000ft
5 to 8 km
1000 to 3000 ft
1500m to 5 km
500 to 1000 ft
800 to 1500m
200 to 500 ft
< 800m
< 200 ft
Symbols :   Thunderstorms  Fog  Heavy snow  Heavy precipitations  Wind > 20 kt
SIGMETs :     Misc.  Thunderstorms  Icing  Turbulence  Mountain Waves  Volcanic Ashes






- Airport Elevation : 989 ft
- IATA code : TRN


LIMF - Torino Caselle

CURRENT METAR :
  • 150650Z 34005KT 1600 RA BR BKN005 OVC015 15/15 Q1013

EXPIRED METARs :
  • 150620Z VRB02KT 1600 RA BR BKN003 OVC015 15/14 Q1014
  • 150550Z 01004KT 2000 RA BR BKN004 OVC015 15/14 Q1014
  • 150520Z 02004KT 2500 -RA BR BKN005 OVC015 15/14 Q1014
  • 150450Z 36005KT 2000 RA BR BKN004 BKN015 15/15 Q1015
  • 150420Z 35005KT 1300 R36/P1500N RA BR BKN004 OVC015 15/15 Q1015
  • 150350Z 01004KT 1600 RA BR SCT015 OVC030 15/14 Q1015

TAF TAF LIMF
Valid from the 15 at 06:00 until the 16 at 06:00 UTC


150500Z 1506/1606 VRB05KT 4000 BR SCT020 BKN040
TEMPO 1506/1516 2000 RA
TEMPO 1600/1606 1200 BCFG



MET'MAP, your aeronautical weather chart ! - Copyright ORBIFLY December 2007 - Disclaimer

ORBIFLY MET'MAP TEAM :

Programming & Development : Alexandra Zaïnal
Concept & Development : Baudouin d'Aumeries
Co-Development & Prog : Marc-Olivier Méhu
Technical & hardware support : Manuel Goepfert

Contact : metmap@orbifly.com




SOURCES & CREDITS :

   NOAA